Time;durP1;ratioP1;P1;durP2;ratioP2;P2;SDS_P1;SDS_P2;PMS_P1;PMS_P2;Temp;Humidity;BMP_temperature;BMP_pressure;BME280_temperature;BME280_humidity;BME280_pressure;Samples;Min_cycle;Max_cycle;Signal;HPM_P1;HPM_P2
2021/12/15 00:00:18;;;;;;;8.98;6.53;;;4.60;82.60;;;;;;5078614;28;20107;-58
2021/12/15 00:02:45;;;;;;;9.15;6.90;;;4.60;83.40;;;;;;5074646;28;20044;-59
2021/12/15 00:05:13;;;;;;;7.85;6.65;;;4.60;82.90;;;;;;5074609;28;20540;-58
2021/12/15 00:07:39;;;;;;;8.77;6.93;;;4.70;82.80;;;;;;5074810;28;20441;-59
2021/12/15 00:10:06;;;;;;;8.00;5.90;;;4.70;82.90;;;;;;5077957;28;20032;-59
2021/12/15 00:12:32;;;;;;;8.80;6.15;;;4.70;82.80;;;;;;5078032;28;20029;-60
2021/12/15 00:14:58;;;;;;;9.48;6.22;;;4.70;82.90;;;;;;5078252;28;20039;-59
2021/12/15 00:17:24;;;;;;;7.63;6.15;;;4.70;82.90;;;;;;5077469;28;20036;-59
2021/12/15 00:19:50;;;;;;;8.45;5.75;;;4.60;83.00;;;;;;5078326;28;20472;-59
2021/12/15 00:22:16;;;;;;;7.53;6.05;;;4.60;82.90;;;;;;5077437;28;20501;-59
2021/12/15 00:24:42;;;;;;;8.25;6.28;;;4.60;82.90;;;;;;5077876;28;20017;-58
2021/12/15 00:27:08;;;;;;;8.50;6.35;;;4.60;83.00;;;;;;5077316;28;20059;-59
2021/12/15 00:29:34;;;;;;;9.02;6.18;;;4.60;83.00;;;;;;5077985;28;20395;-59
2021/12/15 00:32:04;;;;;;;9.20;6.13;;;4.60;83.10;;;;;;5077655;28;20373;-59
2021/12/15 00:34:37;;;;;;;8.98;6.60;;;4.60;83.40;;;;;;5077744;28;20380;-59
2021/12/15 00:37:04;;;;;;;7.88;6.47;;;4.60;83.40;;;;;;5082323;28;20028;-59
2021/12/15 00:39:30;;;;;;;8.98;6.45;;;4.60;83.40;;;;;;5097376;28;20031;-59
2021/12/15 00:41:56;;;;;;;8.85;6.43;;;4.60;83.50;;;;;;5082487;28;20375;-58
2021/12/15 00:44:23;;;;;;;10.23;6.97;;;4.50;83.60;;;;;;5077698;28;20060;-58
2021/12/15 00:46:52;;;;;;;11.05;7.47;;;4.50;83.60;;;;;;5076979;28;20028;-58
2021/12/15 00:49:18;;;;;;;8.95;7.03;;;4.50;83.70;;;;;;5077361;28;20048;-60
2021/12/15 00:51:44;;;;;;;10.70;8.07;;;4.50;83.90;;;;;;5083657;28;20028;-59
2021/12/15 00:54:10;;;;;;;10.25;6.93;;;4.50;84.10;;;;;;5097538;28;20030;-60
2021/12/15 00:56:37;;;;;;;10.52;7.25;;;4.50;84.10;;;;;;5079397;28;20021;-59
2021/12/15 00:59:05;;;;;;;11.88;8.60;;;4.50;84.30;;;;;;5093595;28;20505;-59
2021/12/15 01:01:31;;;;;;;9.43;7.50;;;4.50;84.40;;;;;;5111766;28;20028;-58
2021/12/15 01:03:58;;;;;;;11.02;7.93;;;4.50;84.50;;;;;;5092277;28;20468;-59
2021/12/15 01:06:24;;;;;;;8.73;6.43;;;4.50;84.40;;;;;;5080373;28;20400;-57
2021/12/15 01:08:56;;;;;;;8.85;6.45;;;4.50;84.30;;;;;;5076117;28;20021;-57
2021/12/15 01:11:52;;;;;;;8.73;5.57;;;4.50;84.30;;;;;;5077308;28;20337;-58
2021/12/15 01:19:54;;;;;;;9.25;6.63;;;4.50;84.30;;;;;;5089278;28;20047;-59
2021/12/15 01:22:33;;;;;;;8.20;6.28;;;4.50;84.30;;;;;;5076357;28;20043;-59
2021/12/15 01:25:16;;;;;;;8.25;6.45;;;4.50;84.20;;;;;;5076638;28;20025;-60
2021/12/15 01:27:43;;;;;;;7.82;6.53;;;4.50;84.20;;;;;;5076926;28;20078;-59
2021/12/15 01:30:12;;;;;;;7.38;5.93;;;4.50;84.30;;;;;;5076820;28;20351;-59
2021/12/15 01:32:39;;;;;;;8.10;5.88;;;4.50;84.40;;;;;;5076784;28;20031;-59
2021/12/15 01:35:06;;;;;;;7.93;6.13;;;4.50;84.40;;;;;;5082819;28;20029;-59
2021/12/15 01:37:32;;;;;;;7.57;5.43;;;4.50;84.30;;;;;;5076365;28;20075;-59
2021/12/15 01:39:57;;;;;;;7.90;6.20;;;4.50;84.40;;;;;;5075920;28;20028;-58
2021/12/15 01:42:26;;;;;;;8.50;6.05;;;4.50;84.20;;;;;;5076119;28;20020;-59
2021/12/15 01:47:37;;;;;;;7.85;6.07;;;4.50;84.30;;;;;;5076646;28;20062;-59
2021/12/15 01:50:05;;;;;;;6.25;5.00;;;4.40;84.20;;;;;;5081461;28;20032;-59
2021/12/15 01:52:34;;;;;;;8.27;5.75;;;4.40;84.30;;;;;;5076036;28;20017;-59
2021/12/15 01:55:13;;;;;;;7.82;5.55;;;4.50;84.30;;;;;;5080072;28;20023;-59
2021/12/15 01:57:40;;;;;;;7.00;5.38;;;4.40;84.20;;;;;;5096316;28;20040;-59
2021/12/15 02:00:16;;;;;;;6.80;5.63;;;4.40;84.30;;;;;;5095957;28;20024;-58
2021/12/15 02:02:43;;;;;;;7.80;5.35;;;4.40;84.30;;;;;;5088540;28;20028;-59
2021/12/15 02:05:10;;;;;;;7.35;6.00;;;4.40;84.30;;;;;;5080350;28;20112;-58
2021/12/15 02:07:37;;;;;;;8.40;6.18;;;4.50;84.40;;;;;;5076261;28;20372;-58
2021/12/15 02:10:06;;;;;;;7.95;5.57;;;4.50;84.40;;;;;;5075861;28;20025;-59
2021/12/15 02:12:37;;;;;;;8.95;6.47;;;4.50;84.50;;;;;;5075982;28;20529;-60
2021/12/15 02:15:10;;;;;;;6.63;4.75;;;4.50;84.40;;;;;;5075954;28;20028;-57
2021/12/15 02:17:36;;;;;;;7.47;5.70;;;4.50;84.40;;;;;;5075754;28;20033;-60
2021/12/15 02:20:04;;;;;;;7.65;5.60;;;4.50;84.30;;;;;;5075818;28;20046;-59
2021/12/15 02:22:31;;;;;;;9.02;5.97;;;4.50;84.30;;;;;;5075482;28;20096;-59
2021/12/15 02:24:56;;;;;;;8.85;5.93;;;4.50;84.20;;;;;;5075791;28;20020;-60
2021/12/15 02:27:28;;;;;;;7.30;5.53;;;4.50;84.30;;;;;;5075164;28;20491;-59
2021/12/15 02:29:59;;;;;;;7.53;5.30;;;4.50;84.60;;;;;;5075689;28;20031;-59
2021/12/15 02:32:52;;;;;;;6.70;5.18;;;4.50;84.50;;;;;;5078002;28;20032;-58
2021/12/15 02:38:04;;;;;;;6.80;5.10;;;4.50;84.50;;;;;;5063774;28;20035;-59
2021/12/15 02:40:31;;;;;;;7.32;5.43;;;4.50;84.50;;;;;;5094566;28;20024;-58
2021/12/15 02:42:57;;;;;;;6.85;5.40;;;4.50;84.70;;;;;;5095856;28;20077;-59
2021/12/15 02:45:24;;;;;;;7.45;5.20;;;4.50;84.80;;;;;;5095882;28;20012;-60
2021/12/15 02:47:51;;;;;;;6.05;4.93;;;4.50;84.80;;;;;;5090939;28;20456;-59
2021/12/15 02:50:21;;;;;;;6.75;5.45;;;4.50;84.80;;;;;;5089986;28;20035;-59
2021/12/15 02:52:47;;;;;;;6.93;5.32;;;4.50;84.80;;;;;;5095316;28;20460;-59
2021/12/15 02:55:15;;;;;;;6.03;5.00;;;4.50;84.70;;;;;;5095016;28;20032;-58
2021/12/15 02:57:42;;;;;;;7.82;5.65;;;4.50;84.60;;;;;;5095239;28;20107;-58
2021/12/15 03:04:08;;;;;;;6.80;4.88;;;4.50;84.70;;;;;;5046127;28;20371;-59
2021/12/15 03:06:05;;;;;;;6.47;5.07;;;4.50;84.80;;;;;;5085898;28;20071;-59
2021/12/15 03:16:45;;;;;;;7.90;5.72;;;4.40;85.20;;;;;;5089098;28;20071;-59
2021/12/15 03:19:11;;;;;;;7.30;5.40;;;4.40;85.50;;;;;;5074976;28;20055;-58
2021/12/15 03:21:38;;;;;;;6.82;5.50;;;4.50;85.60;;;;;;5074246;28;20017;-57
2021/12/15 03:24:17;;;;;;;7.63;5.90;;;4.50;85.70;;;;;;5075085;28;20078;-59
2021/12/15 03:26:52;;;;;;;5.95;4.82;;;4.50;85.80;;;;;;5074736;28;20029;-58
2021/12/15 03:37:39;;;;;;;7.07;5.30;;;4.50;85.90;;;;;;5079302;28;20021;-58
2021/12/15 03:40:05;;;;;;;6.95;5.28;;;4.50;86.10;;;;;;5074549;28;20447;-58
2021/12/15 03:42:40;;;;;;;7.28;5.50;;;4.50;86.10;;;;;;5074418;28;20024;-59
2021/12/15 03:45:13;;;;;;;5.88;4.80;;;4.50;86.20;;;;;;5078427;28;20360;-58
2021/12/15 03:47:43;;;;;;;6.43;5.00;;;4.50;86.20;;;;;;5078456;28;20016;-58
2021/12/15 03:50:11;;;;;;;6.07;4.65;;;4.60;86.20;;;;;;5091592;28;20483;-57
2021/12/15 03:52:37;;;;;;;6.57;5.18;;;4.50;86.10;;;;;;5098876;28;20081;-59
2021/12/15 03:55:05;;;;;;;7.35;5.50;;;4.50;86.20;;;;;;5098773;28;20020;-59
2021/12/15 03:57:31;;;;;;;6.57;5.30;;;4.60;86.10;;;;;;5089593;28;20387;-58
2021/12/15 03:59:57;;;;;;;6.75;5.22;;;4.60;86.30;;;;;;5078375;28;20036;-58
2021/12/15 04:02:24;;;;;;;7.28;4.97;;;4.60;86.20;;;;;;5079831;28;20020;-59
2021/12/15 04:04:51;;;;;;;6.10;5.03;;;4.60;86.00;;;;;;5084511;28;20036;-56
2021/12/15 04:07:18;;;;;;;7.10;5.45;;;4.60;86.00;;;;;;5095559;28;20095;-57
2021/12/15 04:09:45;;;;;;;6.50;4.80;;;4.60;86.10;;;;;;5098157;28;20365;-58
2021/12/15 04:12:12;;;;;;;6.97;4.72;;;4.60;86.00;;;;;;5097798;28;20012;-59
2021/12/15 04:14:46;;;;;;;5.38;4.32;;;4.60;86.00;;;;;;5098393;28;20064;-59
2021/12/15 04:17:30;;;;;;;5.93;4.38;;;4.70;85.90;;;;;;5098672;28;20032;-59
2021/12/15 04:20:04;;;;;;;6.70;5.00;;;4.70;85.80;;;;;;5098031;28;20085;-58
2021/12/15 04:22:30;;;;;;;7.30;5.35;;;4.70;85.60;;;;;;5098033;28;20582;-57
2021/12/15 04:24:57;;;;;;;5.97;4.50;;;4.60;85.60;;;;;;5085280;28;20056;-59
2021/12/15 04:27:23;;;;;;;5.25;4.30;;;4.60;85.70;;;;;;5077564;28;20028;-59
2021/12/15 04:29:50;;;;;;;5.55;4.53;;;4.60;85.50;;;;;;5076896;28;20457;-59
2021/12/15 04:32:40;;;;;;;4.70;3.95;;;4.60;85.40;;;;;;5077567;28;20024;-59
2021/12/15 04:35:08;;;;;;;4.75;4.10;;;4.60;85.40;;;;;;5077745;28;20036;-58
2021/12/15 04:37:34;;;;;;;5.18;3.97;;;4.60;85.30;;;;;;5077882;28;20021;-59
2021/12/15 04:40:00;;;;;;;5.90;4.32;;;4.60;85.40;;;;;;5077676;28;20031;-58
2021/12/15 04:42:27;;;;;;;5.25;4.28;;;4.60;85.40;;;;;;5080429;28;20470;-58
2021/12/15 04:44:56;;;;;;;6.65;4.82;;;4.60;85.40;;;;;;5077408;28;20021;-58
2021/12/15 04:47:23;;;;;;;7.78;4.40;;;4.60;85.40;;;;;;5077719;28;20419;-59
2021/12/15 04:49:52;;;;;;;7.15;4.30;;;4.60;86.20;;;;;;5077367;28;20029;-58
2021/12/15 04:52:22;;;;;;;5.20;4.10;;;4.50;85.50;;;;;;5076670;28;20085;-58
2021/12/15 04:54:49;;;;;;;5.82;3.80;;;4.50;85.70;;;;;;5079210;28;20025;-59
2021/12/15 04:57:18;;;;;;;5.30;4.22;;;4.50;85.90;;;;;;5094981;28;20028;-59
2021/12/15 04:59:45;;;;;;;6.30;4.43;;;4.50;86.00;;;;;;5097497;28;20043;-59
2021/12/15 05:02:12;;;;;;;6.10;4.80;;;4.50;86.00;;;;;;5091764;28;20100;-59
2021/12/15 05:04:38;;;;;;;6.88;4.13;;;4.50;86.20;;;;;;5077999;28;20056;-59
2021/12/15 05:07:04;;;;;;;7.25;5.05;;;4.40;86.30;;;;;;5075396;28;20017;-56
2021/12/15 05:09:30;;;;;;;6.53;4.80;;;4.40;86.50;;;;;;5076887;28;20521;-58
2021/12/15 05:11:56;;;;;;;6.22;4.45;;;4.40;86.70;;;;;;5076920;28;20025;-56
2021/12/15 05:14:23;;;;;;;5.28;4.53;;;4.50;86.60;;;;;;5076445;28;20020;-59
2021/12/15 05:16:51;;;;;;;4.85;4.03;;;4.50;86.70;;;;;;5076604;28;20028;-58
2021/12/15 05:19:17;;;;;;;5.80;4.30;;;4.50;86.60;;;;;;5076167;28;20025;-59
2021/12/15 05:21:43;;;;;;;5.57;4.53;;;4.50;86.70;;;;;;5076669;28;20086;-59
2021/12/15 05:24:30;;;;;;;5.65;3.85;;;4.50;86.70;;;;;;5076653;28;20047;-57
2021/12/15 05:27:09;;;;;;;5.07;4.05;;;4.50;86.60;;;;;;5077019;28;20036;-59
2021/12/15 05:29:36;;;;;;;5.45;4.40;;;4.50;86.50;;;;;;5076653;28;20456;-59
2021/12/15 05:32:03;;;;;;;4.95;4.10;;;4.50;86.70;;;;;;5076473;28;20037;-59
2021/12/15 05:34:31;;;;;;;6.13;4.45;;;4.50;86.80;;;;;;5088198;28;20106;-59
2021/12/15 05:36:57;;;;;;;5.25;4.25;;;4.50;86.70;;;;;;5096359;28;20028;-59
2021/12/15 05:39:24;;;;;;;5.95;4.65;;;4.50;86.40;;;;;;5087365;28;20106;-58
2021/12/15 05:41:52;;;;;;;6.93;4.70;;;4.50;86.40;;;;;;5096125;28;20053;-59
2021/12/15 05:44:19;;;;;;;4.88;4.05;;;4.60;86.30;;;;;;5096601;28;20027;-58
2021/12/15 05:46:45;;;;;;;5.20;4.25;;;4.50;86.30;;;;;;5088266;28;20028;-56
2021/12/15 05:49:11;;;;;;;5.78;4.50;;;4.60;86.30;;;;;;5087914;28;20022;-59
2021/12/15 05:51:38;;;;;;;5.05;4.20;;;4.60;86.20;;;;;;5096309;28;20047;-58
2021/12/15 05:54:06;;;;;;;4.88;4.20;;;4.60;86.00;;;;;;5096340;28;20035;-59
2021/12/15 05:56:32;;;;;;;5.03;4.40;;;4.60;86.00;;;;;;5090909;28;20110;-59
2021/12/15 05:58:58;;;;;;;4.75;4.22;;;4.60;86.00;;;;;;5096303;28;20063;-58
2021/12/15 06:01:24;;;;;;;6.80;4.50;;;4.60;86.00;;;;;;5087456;28;20031;-57
2021/12/15 06:03:50;;;;;;;5.93;4.13;;;4.60;86.00;;;;;;5074771;28;20020;-59
2021/12/15 06:06:15;;;;;;;6.13;4.57;;;4.60;86.00;;;;;;5078289;28;20465;-58
2021/12/15 06:08:41;;;;;;;7.35;4.80;;;4.60;86.10;;;;;;5085788;28;20020;-59
2021/12/15 06:11:07;;;;;;;6.88;4.70;;;4.60;86.40;;;;;;5095927;28;20480;-59
2021/12/15 06:13:33;;;;;;;5.60;4.20;;;4.60;86.10;;;;;;5095872;28;20367;-59
2021/12/15 06:16:01;;;;;;;5.75;4.88;;;4.60;86.20;;;;;;5095821;28;20039;-59
2021/12/15 06:18:27;;;;;;;5.45;4.38;;;4.60;86.30;;;;;;5095442;28;20020;-59
2021/12/15 06:20:54;;;;;;;5.68;4.45;;;4.60;86.30;;;;;;5093376;28;20060;-59
2021/12/15 06:23:22;;;;;;;6.57;4.93;;;4.60;86.20;;;;;;5074885;28;20033;-57
2021/12/15 06:26:00;;;;;;;5.93;4.50;;;4.60;86.10;;;;;;5080077;28;20673;-58
2021/12/15 06:28:28;;;;;;;5.07;4.00;;;4.60;86.00;;;;;;5078377;28;20111;-59
2021/12/15 06:30:54;;;;;;;4.60;3.90;;;4.60;86.00;;;;;;5083348;28;20086;-58
2021/12/15 06:33:22;;;;;;;5.32;4.20;;;4.60;85.90;;;;;;5083564;28;20428;-58
2021/12/15 06:35:58;;;;;;;5.85;4.72;;;4.60;85.70;;;;;;5078886;28;20111;-58
2021/12/15 06:38:29;;;;;;;5.05;4.38;;;4.60;85.50;;;;;;5075392;28;20064;-58
2021/12/15 06:40:56;;;;;;;6.35;5.00;;;4.60;85.50;;;;;;5081190;28;20032;-57
2021/12/15 06:43:23;;;;;;;5.00;3.90;;;4.60;85.60;;;;;;5075174;28;20027;-58
2021/12/15 06:59:29;;;;;;;5.20;4.30;;;4.60;85.80;;;;;;5079528;28;20043;-59
2021/12/15 07:01:55;;;;;;;5.88;4.30;;;4.60;86.20;;;;;;5071775;28;20028;-57
2021/12/15 07:04:23;;;;;;;5.72;4.03;;;4.60;86.00;;;;;;5071825;28;20054;-57
2021/12/15 07:06:50;;;;;;;6.25;4.70;;;4.60;86.00;;;;;;5063858;28;20024;-58
2021/12/15 07:09:17;;;;;;;6.28;4.35;;;4.60;86.20;;;;;;5069078;28;20624;-59
2021/12/15 07:11:43;;;;;;;6.25;4.30;;;4.60;86.30;;;;;;5074335;28;20070;-60
2021/12/15 07:14:09;;;;;;;5.38;3.90;;;4.60;86.40;;;;;;5073325;28;20035;-59
2021/12/15 07:16:40;;;;;;;6.03;4.55;;;4.60;86.30;;;;;;5070970;28;20158;-59
2021/12/15 07:19:10;;;;;;;5.27;4.30;;;4.60;86.00;;;;;;5070703;28;20383;-60
2021/12/15 07:21:40;;;;;;;5.28;4.38;;;4.60;86.10;;;;;;5069188;28;20032;-59
2021/12/15 07:24:07;;;;;;;4.88;3.63;;;4.60;85.80;;;;;;5072931;28;20141;-59
2021/12/15 07:26:34;;;;;;;5.45;4.25;;;4.60;85.80;;;;;;5069714;28;20024;-59
2021/12/15 07:29:00;;;;;;;5.18;4.10;;;4.60;85.60;;;;;;5075397;28;20043;-59
2021/12/15 07:31:25;;;;;;;6.03;5.20;;;4.60;85.70;;;;;;5077627;28;20167;-60
2021/12/15 07:33:51;;;;;;;6.13;4.47;;;4.60;85.80;;;;;;5079707;28;20028;-58
2021/12/15 07:36:17;;;;;;;5.55;4.50;;;4.60;85.80;;;;;;5070821;28;20033;-58
2021/12/15 07:38:44;;;;;;;6.07;4.47;;;4.60;85.60;;;;;;5073819;28;20024;-60
2021/12/15 07:41:37;;;;;;;6.50;4.82;;;4.70;85.60;;;;;;5072620;28;20064;-59
2021/12/15 07:44:03;;;;;;;5.97;4.93;;;4.70;85.60;;;;;;5064563;28;20028;-60
2021/12/15 07:46:30;;;;;;;5.43;4.25;;;4.70;85.50;;;;;;5069280;28;20032;-60
2021/12/15 07:48:56;;;;;;;6.60;4.53;;;4.70;85.40;;;;;;5074149;28;20556;-59
2021/12/15 07:51:23;;;;;;;5.55;4.20;;;4.70;85.40;;;;;;5075357;28;20094;-59
2021/12/15 07:53:49;;;;;;;5.22;4.10;;;4.70;85.20;;;;;;5073110;28;20047;-60
2021/12/15 07:56:15;;;;;;;5.68;4.38;;;4.80;85.20;;;;;;5072393;28;20032;-62
2021/12/15 07:58:42;;;;;;;6.40;4.85;;;4.80;85.20;;;;;;5069769;28;20066;-60
2021/12/15 08:01:08;;;;;;;4.90;4.13;;;4.80;85.00;;;;;;5070343;28;20044;-59
2021/12/15 08:03:37;;;;;;;5.60;4.38;;;4.90;85.00;;;;;;5066884;28;20036;-61
2021/12/15 08:06:03;;;;;;;5.57;4.25;;;4.90;84.80;;;;;;5067615;28;20013;-60
2021/12/15 08:08:30;;;;;;;6.93;4.70;;;4.90;84.80;;;;;;5069334;28;20431;-60
2021/12/15 08:10:57;;;;;;;6.45;4.82;;;4.90;84.50;;;;;;5068041;28;20131;-60
2021/12/15 08:13:31;;;;;;;5.72;4.45;;;5.00;84.40;;;;;;5066732;28;20055;-60
2021/12/15 08:15:58;;;;;;;5.78;4.90;;;5.00;84.10;;;;;;5063486;28;20055;-59
2021/12/15 08:18:25;;;;;;;6.80;4.95;;;5.00;84.10;;;;;;5072178;28;20032;-60
2021/12/15 08:20:51;;;;;;;7.43;5.43;;;5.00;84.00;;;;;;5068959;28;20036;-59
2021/12/15 08:23:18;;;;;;;6.60;5.03;;;5.00;84.00;;;;;;5067943;28;20036;-61
2021/12/15 08:25:45;;;;;;;7.88;4.93;;;5.00;84.00;;;;;;5068111;28;20032;-61
2021/12/15 08:28:12;;;;;;;7.93;5.18;;;5.00;84.00;;;;;;5068330;28;20027;-61
2021/12/15 08:30:40;;;;;;;9.65;6.10;;;5.00;84.00;;;;;;5058464;28;20497;-60
2021/12/15 08:33:12;;;;;;;12.02;8.13;;;5.00;83.80;;;;;;5064364;28;20357;-60
2021/12/15 08:35:44;;;;;;;9.50;6.43;;;5.00;84.10;;;;;;5067657;28;20093;-60
2021/12/15 08:38:11;;;;;;;9.90;6.32;;;5.00;84.30;;;;;;5073437;28;20028;-60
2021/12/15 08:40:38;;;;;;;9.43;6.40;;;4.90;84.50;;;;;;5066670;28;20043;-61
2021/12/15 08:43:07;;;;;;;9.52;6.53;;;5.00;84.60;;;;;;5067524;28;20032;-60
2021/12/15 08:45:35;;;;;;;10.60;6.95;;;5.00;84.60;;;;;;5071204;28;20073;-60
2021/12/15 08:48:01;;;;;;;11.32;6.57;;;4.90;84.60;;;;;;5063262;28;20040;-60
2021/12/15 08:50:31;;;;;;;9.93;7.50;;;4.90;84.60;;;;;;5062734;28;20670;-58
2021/12/15 08:52:57;;;;;;;8.95;6.80;;;5.00;85.10;;;;;;5059791;28;20024;-58
2021/12/15 08:55:24;;;;;;;10.80;6.88;;;4.90;84.80;;;;;;5062250;28;20119;-61
2021/12/15 08:57:53;;;;;;;9.00;6.55;;;4.90;84.90;;;;;;5066732;28;20041;-61
2021/12/15 09:00:22;;;;;;;10.98;7.05;;;5.00;85.00;;;;;;5067346;28;20109;-60
2021/12/15 09:02:48;;;;;;;11.00;8.07;;;4.90;84.70;;;;;;5069518;28;20020;-60
2021/12/15 09:05:20;;;;;;;9.07;6.75;;;5.00;84.90;;;;;;5068479;28;20771;-60
2021/12/15 09:07:54;;;;;;;;;;;5.00;84.90;;;;;;5069027;28;20484;-60
2021/12/15 09:10:23;;;;;;;10.15;6.90;;;4.90;84.60;;;;;;5065605;28;19916;-60
2021/12/15 09:12:49;;;;;;;8.80;6.85;;;5.00;85.10;;;;;;5071012;28;20043;-61
2021/12/15 09:15:16;;;;;;;10.80;7.32;;;5.00;85.00;;;;;;5064010;28;20027;-61
2021/12/15 09:17:42;;;;;;;10.13;7.35;;;5.00;84.70;;;;;;5071410;28;20033;-61
2021/12/15 09:20:11;;;;;;;10.25;7.55;;;5.10;84.70;;;;;;5068206;28;20062;-61
2021/12/15 09:22:38;;;;;;;8.73;6.82;;;5.10;84.40;;;;;;5020515;28;1342972;-59
2021/12/15 09:25:09;;;;;;;11.30;7.07;;;5.00;84.10;;;;;;5062165;28;20055;-60
2021/12/15 09:27:36;;;;;;;11.00;8.15;;;5.10;83.90;;;;;;5062742;28;20047;-60
2021/12/15 09:30:08;;;;;;;13.98;8.38;;;5.10;84.00;;;;;;5072938;28;20040;-60
2021/12/15 09:32:34;;;;;;;11.65;7.50;;;5.10;84.00;;;;;;5069641;28;20033;-61
2021/12/15 09:35:01;;;;;;;14.32;8.95;;;5.10;84.00;;;;;;5065136;28;20024;-59
2021/12/15 09:37:28;;;;;;;13.18;8.48;;;5.10;83.70;;;;;;5072107;28;20043;-59
2021/12/15 09:39:55;;;;;;;12.75;9.23;;;5.10;83.80;;;;;;5070653;28;20125;-59
2021/12/15 09:42:28;;;;;;;11.00;7.50;;;5.10;83.70;;;;;;5071984;28;20188;-60
2021/12/15 09:45:01;;;;;;;11.55;8.55;;;5.10;83.80;;;;;;5070306;28;20023;-61
2021/12/15 09:47:47;;;;;;;12.45;8.30;;;5.10;83.50;;;;;;5065832;28;20032;-59
2021/12/15 09:56:26;;;;;;;11.82;7.97;;;5.10;83.40;;;;;;5047760;28;20032;-60
2021/12/15 10:17:49;;;;;;;22.77;12.80;;;5.10;83.30;;;;;;5068268;28;20132;-59
2021/12/15 10:20:20;;;;;;;;;;;5.10;83.40;;;;;;5063257;28;20123;-58
2021/12/15 10:22:50;;;;;;;24.67;13.60;;;5.00;83.00;;;;;;5066699;28;19967;-60
2021/12/15 10:25:28;;;;;;;17.40;10.63;;;5.00;83.40;;;;;;5066041;28;20047;-59
2021/12/15 10:28:04;;;;;;;18.98;12.30;;;5.00;83.40;;;;;;5064033;28;20020;-60
2021/12/15 10:30:36;;;;;;;21.05;12.18;;;5.00;83.50;;;;;;5070938;28;20514;-60
2021/12/15 10:33:15;;;;;;;21.63;12.25;;;5.00;83.60;;;;;;5069781;28;20522;-59
2021/12/15 10:35:51;;;;;;;18.35;11.00;;;5.00;83.50;;;;;;5058758;28;20082;-58
2021/12/15 10:38:27;;;;;;;19.95;12.80;;;5.10;83.70;;;;;;5066838;28;20037;-59
2021/12/15 10:40:55;;;;;;;22.52;13.23;;;5.00;83.50;;;;;;5067544;28;20715;-59
2021/12/15 10:43:26;;;;;;;19.80;11.98;;;5.00;83.60;;;;;;5069432;28;20028;-59
2021/12/15 10:45:56;;;;;;;20.05;12.15;;;5.00;83.50;;;;;;5071348;28;20529;-59
2021/12/15 10:48:46;;;;;;;17.98;11.73;;;5.10;83.80;;;;;;5069861;28;20079;-59
2021/12/15 10:51:38;;;;;;;19.92;11.68;;;5.10;83.70;;;;;;5067706;28;20134;-59
2021/12/15 10:54:14;;;;;;;21.70;12.57;;;5.10;83.40;;;;;;5067848;28;20093;-59
2021/12/15 10:56:49;;;;;;;20.05;12.57;;;5.00;83.70;;;;;;5064706;28;20027;-58
2021/12/15 10:59:15;;;;;;;23.02;13.05;;;5.10;83.40;;;;;;5065154;28;20032;-59
2021/12/15 11:02:08;;;;;;;20.25;12.02;;;5.00;83.50;;;;;;5062005;28;20087;-60
2021/12/15 11:04:48;;;;;;;22.45;12.60;;;5.00;83.30;;;;;;5064479;28;20028;-59
2021/12/15 11:07:23;;;;;;;21.63;12.18;;;5.00;83.50;;;;;;5066006;28;20484;-59
2021/12/15 11:09:56;;;;;;;22.80;11.98;;;5.00;83.50;;;;;;5069434;28;20090;-60
2021/12/15 11:12:30;;;;;;;23.25;14.07;;;5.00;83.70;;;;;;5073614;28;20032;-60
2021/12/15 11:15:06;;;;;;;23.98;13.13;;;5.00;83.80;;;;;;5077518;28;20660;-59
2021/12/15 11:17:36;;;;;;;24.13;12.65;;;5.10;83.80;;;;;;5069860;28;20036;-59
2021/12/15 11:20:08;;;;;;;22.33;12.82;;;5.10;83.70;;;;;;5074645;28;20032;-59
2021/12/15 11:22:55;;;;;;;24.05;13.77;;;5.10;83.70;;;;;;5072793;28;20087;-59
2021/12/15 11:25:31;;;;;;;23.80;13.88;;;5.10;83.60;;;;;;5069033;28;20134;-58
2021/12/15 11:28:19;;;;;;;19.92;12.35;;;5.00;83.40;;;;;;5077532;28;20056;-59
2021/12/15 11:31:00;;;;;;;20.73;12.35;;;5.00;83.40;;;;;;5071695;28;20032;-59
2021/12/15 11:33:41;;;;;;;19.80;12.15;;;5.00;83.50;;;;;;5075179;28;20060;-59
2021/12/15 11:36:06;;;;;;;23.90;12.97;;;5.00;83.60;;;;;;5072453;28;20059;-58
2021/12/15 11:38:49;;;;;;;20.35;12.52;;;4.90;83.60;;;;;;5074004;28;20273;-59
2021/12/15 11:41:22;;;;;;;19.77;12.00;;;5.00;83.60;;;;;;5073782;28;20071;-59
2021/12/15 11:43:58;;;;;;;22.95;11.95;;;5.00;84.20;;;;;;5078165;28;20052;-59
2021/12/15 11:46:35;;;;;;;19.25;11.68;;;5.00;83.50;;;;;;5073015;28;20036;-59
2021/12/15 11:49:13;;;;;;;21.35;12.93;;;5.00;83.30;;;;;;5074643;28;20352;-59
2021/12/15 11:51:47;;;;;;;24.42;14.95;;;5.00;83.20;;;;;;5075609;28;20384;-59
2021/12/15 11:54:29;;;;;;;28.23;15.57;;;5.00;83.40;;;;;;5070183;28;20035;-59
2021/12/15 11:57:04;;;;;;;27.88;17.13;;;5.00;83.60;;;;;;5071052;28;20103;-59
2021/12/15 11:59:45;;;;;;;25.20;15.60;;;5.00;83.50;;;;;;5072658;28;20468;-59
2021/12/15 12:02:29;;;;;;;28.15;14.63;;;4.90;83.50;;;;;;5073807;28;20067;-59
2021/12/15 12:05:09;;;;;;;30.92;14.35;;;4.90;83.60;;;;;;5075155;28;20048;-59
2021/12/15 12:07:42;;;;;;;25.70;14.27;;;4.90;83.60;;;;;;5078435;28;20028;-59
2021/12/15 12:10:22;;;;;;;21.25;13.52;;;4.90;83.80;;;;;;5077260;28;20452;-59
2021/12/15 12:12:58;;;;;;;23.85;13.70;;;4.80;84.00;;;;;;5068339;28;20028;-58
2021/12/15 12:15:27;;;;;;;28.40;14.98;;;4.80;84.20;;;;;;5060772;28;20032;-59
2021/12/15 12:17:57;;;;;;;28.42;15.60;;;4.80;84.30;;;;;;5070972;28;20031;-60
2021/12/15 12:20:25;;;;;;;24.73;14.93;;;4.80;84.50;;;;;;5070196;28;20073;-58
2021/12/15 12:22:53;;;;;;;25.58;15.20;;;4.80;84.50;;;;;;5072818;28;20482;-59
2021/12/15 12:25:35;;;;;;;22.35;13.93;;;4.80;84.40;;;;;;5070550;28;20090;-58
2021/12/15 12:28:02;;;;;;;21.98;13.13;;;4.80;84.40;;;;;;5072669;28;20039;-58
2021/12/15 12:30:32;;;;;;;25.73;13.80;;;4.80;84.50;;;;;;5063798;28;20484;-58
2021/12/15 12:32:59;;;;;;;26.48;14.68;;;4.80;84.40;;;;;;5066465;28;21009;-57
2021/12/15 12:35:29;;;;;;;22.90;13.60;;;4.80;84.20;;;;;;5075021;28;20043;-58
2021/12/15 12:38:08;;;;;;;24.17;14.27;;;4.80;84.90;;;;;;5066442;28;20115;-59
2021/12/15 12:40:45;;;;;;;23.80;13.23;;;4.80;84.20;;;;;;5067152;28;20081;-60
2021/12/15 12:43:32;;;;;;;20.17;12.50;;;4.80;84.20;;;;;;5072799;28;20055;-58
2021/12/15 12:46:05;;;;;;;26.38;13.65;;;4.80;84.00;;;;;;5072499;28;20021;-59
2021/12/15 12:48:47;;;;;;;21.98;12.93;;;4.80;84.10;;;;;;5065728;28;20703;-59
2021/12/15 12:59:59;;;;;;;26.27;14.35;;;4.80;84.00;;;;;;5061002;28;20039;-57
2021/12/15 13:02:33;;;;;;;23.02;12.73;;;4.80;84.20;;;;;;5065921;28;20044;-59
2021/12/15 13:04:59;;;;;;;20.52;12.73;;;4.80;84.20;;;;;;5068638;28;20019;-59
2021/12/15 13:07:48;;;;;;;23.45;13.25;;;4.80;84.20;;;;;;5068950;28;20024;-56
2021/12/15 13:10:16;;;;;;;21.85;12.52;;;4.80;84.00;;;;;;5070405;28;20023;-57
2021/12/15 13:12:47;;;;;;;20.63;12.48;;;4.80;84.20;;;;;;5067903;28;20016;-57
2021/12/15 13:15:17;;;;;;;22.88;13.50;;;4.80;83.90;;;;;;5065242;28;20032;-59
2021/12/15 13:17:59;;;;;;;21.02;12.43;;;4.80;83.80;;;;;;5071791;28;20787;-59
2021/12/15 13:20:28;;;;;;;22.70;12.80;;;4.90;83.70;;;;;;5065508;28;20028;-59
2021/12/15 13:23:08;;;;;;;21.90;13.00;;;4.90;83.60;;;;;;5066634;28;20040;-59
2021/12/15 13:28:49;;;;;;;21.73;12.20;;;4.90;83.60;;;;;;5066289;28;20039;-59
2021/12/15 13:31:19;;;;;;;20.70;12.32;;;4.90;83.50;;;;;;5072087;28;20029;-59
2021/12/15 13:33:53;;;;;;;22.85;11.80;;;4.90;83.20;;;;;;5074866;28;20059;-59
2021/12/15 13:36:38;;;;;;;22.83;12.68;;;4.90;83.10;;;;;;5070337;28;20040;-58
2021/12/15 13:39:07;;;;;;;23.60;12.07;;;4.90;83.30;;;;;;5075991;28;20090;-59
2021/12/15 13:41:41;;;;;;;18.75;11.75;;;4.90;83.40;;;;;;5068696;28;20076;-58
2021/12/15 13:44:15;;;;;;;20.20;11.55;;;4.90;83.20;;;;;;5069427;28;20059;-59
2021/12/15 13:46:43;;;;;;;22.63;11.32;;;4.90;83.00;;;;;;5072367;28;20032;-59
2021/12/15 13:49:28;;;;;;;16.25;10.88;;;4.90;82.90;;;;;;5071455;28;20822;-58
2021/12/15 13:52:06;;;;;;;19.08;11.68;;;4.90;82.60;;;;;;5068104;28;20151;-59
2021/12/15 13:54:37;;;;;;;18.70;10.38;;;4.90;82.40;;;;;;5068997;28;20055;-59
2021/12/15 13:57:12;;;;;;;16.98;10.32;;;4.90;82.40;;;;;;5071827;28;20473;-59
2021/12/15 13:59:46;;;;;;;16.88;10.48;;;4.90;82.30;;;;;;5062014;28;20059;-58
2021/12/15 14:02:21;;;;;;;17.85;10.77;;;4.90;82.40;;;;;;5066475;28;20165;-58
2021/12/15 14:04:51;;;;;;;19.13;10.95;;;4.90;82.30;;;;;;5068348;28;20028;-59
2021/12/15 14:07:36;;;;;;;21.30;11.23;;;4.90;82.40;;;;;;5064731;28;20032;-58
2021/12/15 14:10:25;;;;;;;19.50;11.10;;;4.90;82.40;;;;;;5067863;28;20541;-59
2021/12/15 14:12:57;;;;;;;20.38;10.60;;;4.90;82.30;;;;;;5067001;28;20089;-60
2021/12/15 14:15:25;;;;;;;17.35;10.98;;;4.90;82.10;;;;;;5068555;28;20032;-59
2021/12/15 14:18:21;;;;;;;17.50;10.30;;;4.80;81.90;;;;;;5073883;28;20097;-57
2021/12/15 14:21:12;;;;;;;20.15;10.63;;;4.80;81.90;;;;;;5071422;28;20024;-58
2021/12/15 14:23:50;;;;;;;17.00;9.30;;;4.90;81.90;;;;;;5072030;28;20163;-58
2021/12/15 14:26:24;;;;;;;15.88;9.18;;;4.80;81.70;;;;;;5072090;28;20827;-58
2021/12/15 14:28:57;;;;;;;18.50;10.50;;;4.80;81.90;;;;;;5077957;28;20123;-58